sensor_id;sensor_type;location;lat;lon;timestamp;P1;durP1;ratioP1;P2;durP2;ratioP2
75732;SDS011;64435;47.424;19.400;2023-01-05T00:01:37;16.20;;;8.30;;
75732;SDS011;64435;47.424;19.400;2023-01-05T00:04:03;14.93;;;8.43;;
75732;SDS011;64435;47.424;19.400;2023-01-05T00:06:29;14.82;;;7.50;;
75732;SDS011;64435;47.424;19.400;2023-01-05T00:08:54;18.20;;;8.38;;
75732;SDS011;64435;47.424;19.400;2023-01-05T00:11:21;15.97;;;8.67;;
75732;SDS011;64435;47.424;19.400;2023-01-05T00:14:08;14.20;;;7.65;;
75732;SDS011;64435;47.424;19.400;2023-01-05T00:16:58;17.70;;;7.55;;
75732;SDS011;64435;47.424;19.400;2023-01-05T00:19:42;17.93;;;8.00;;
75732;SDS011;64435;47.424;19.400;2023-01-05T00:22:27;20.05;;;8.77;;
75732;SDS011;64435;47.424;19.400;2023-01-05T00:24:57;11.02;;;6.00;;
75732;SDS011;64435;47.424;19.400;2023-01-05T00:27:22;18.25;;;8.93;;
75732;SDS011;64435;47.424;19.400;2023-01-05T00:29:47;16.00;;;9.37;;
75732;SDS011;64435;47.424;19.400;2023-01-05T00:32:13;15.57;;;8.10;;
75732;SDS011;64435;47.424;19.400;2023-01-05T00:34:38;15.60;;;8.53;;
75732;SDS011;64435;47.424;19.400;2023-01-05T00:37:04;14.97;;;7.70;;
75732;SDS011;64435;47.424;19.400;2023-01-05T00:39:29;13.67;;;8.10;;
75732;SDS011;64435;47.424;19.400;2023-01-05T00:41:54;16.77;;;8.37;;
75732;SDS011;64435;47.424;19.400;2023-01-05T00:44:20;17.57;;;8.73;;
75732;SDS011;64435;47.424;19.400;2023-01-05T00:46:45;17.37;;;8.67;;
75732;SDS011;64435;47.424;19.400;2023-01-05T00:49:10;16.80;;;8.80;;
75732;SDS011;64435;47.424;19.400;2023-01-05T00:51:36;17.63;;;8.30;;
75732;SDS011;64435;47.424;19.400;2023-01-05T00:54:01;14.50;;;7.17;;
75732;SDS011;64435;47.424;19.400;2023-01-05T00:56:27;14.87;;;8.37;;
75732;SDS011;64435;47.424;19.400;2023-01-05T00:58:52;16.07;;;8.13;;
75732;SDS011;64435;47.424;19.400;2023-01-05T01:01:19;18.67;;;9.15;;
75732;SDS011;64435;47.424;19.400;2023-01-05T01:03:44;18.92;;;9.23;;
75732;SDS011;64435;47.424;19.400;2023-01-05T01:06:10;15.00;;;7.90;;
75732;SDS011;64435;47.424;19.400;2023-01-05T01:08:35;18.03;;;8.63;;
75732;SDS011;64435;47.424;19.400;2023-01-05T01:11:04;17.80;;;8.13;;
75732;SDS011;64435;47.424;19.400;2023-01-05T01:13:31;16.85;;;8.23;;
75732;SDS011;64435;47.424;19.400;2023-01-05T01:15:56;16.30;;;8.50;;
75732;SDS011;64435;47.424;19.400;2023-01-05T01:18:22;17.40;;;8.98;;
75732;SDS011;64435;47.424;19.400;2023-01-05T01:20:47;15.27;;;8.23;;
75732;SDS011;64435;47.424;19.400;2023-01-05T01:23:13;16.50;;;9.07;;
75732;SDS011;64435;47.424;19.400;2023-01-05T01:25:38;17.17;;;8.73;;
75732;SDS011;64435;47.424;19.400;2023-01-05T01:28:04;14.97;;;7.60;;
75732;SDS011;64435;47.424;19.400;2023-01-05T01:30:29;18.17;;;8.67;;
75732;SDS011;64435;47.424;19.400;2023-01-05T01:32:55;17.73;;;8.83;;
75732;SDS011;64435;47.424;19.400;2023-01-05T01:35:20;16.97;;;8.70;;
75732;SDS011;64435;47.424;19.400;2023-01-05T01:37:46;16.30;;;8.90;;
75732;SDS011;64435;47.424;19.400;2023-01-05T01:40:11;15.27;;;7.23;;
75732;SDS011;64435;47.424;19.400;2023-01-05T01:42:37;15.13;;;8.23;;
75732;SDS011;64435;47.424;19.400;2023-01-05T01:45:24;13.95;;;7.40;;
75732;SDS011;64435;47.424;19.400;2023-01-05T01:47:53;15.73;;;8.35;;
75732;SDS011;64435;47.424;19.400;2023-01-05T01:50:26;16.73;;;8.83;;
75732;SDS011;64435;47.424;19.400;2023-01-05T01:52:57;17.85;;;9.95;;
75732;SDS011;64435;47.424;19.400;2023-01-05T01:55:24;16.05;;;9.02;;
75732;SDS011;64435;47.424;19.400;2023-01-05T01:57:50;16.58;;;8.95;;
75732;SDS011;64435;47.424;19.400;2023-01-05T02:00:16;18.70;;;8.47;;
75732;SDS011;64435;47.424;19.400;2023-01-05T02:02:44;17.75;;;9.10;;
75732;SDS011;64435;47.424;19.400;2023-01-05T02:05:11;15.38;;;8.63;;
75732;SDS011;64435;47.424;19.400;2023-01-05T02:07:38;17.40;;;8.70;;
75732;SDS011;64435;47.424;19.400;2023-01-05T02:10:07;18.13;;;8.87;;
75732;SDS011;64435;47.424;19.400;2023-01-05T02:15:42;16.73;;;8.60;;
75732;SDS011;64435;47.424;19.400;2023-01-05T02:26:48;16.27;;;8.65;;
75732;SDS011;64435;47.424;19.400;2023-01-05T02:32:33;23.20;;;8.90;;
75732;SDS011;64435;47.424;19.400;2023-01-05T02:35:17;14.70;;;8.30;;
75732;SDS011;64435;47.424;19.400;2023-01-05T02:37:50;16.35;;;8.38;;
75732;SDS011;64435;47.424;19.400;2023-01-05T02:40:36;17.62;;;8.88;;
75732;SDS011;64435;47.424;19.400;2023-01-05T02:43:14;15.60;;;8.00;;
75732;SDS011;64435;47.424;19.400;2023-01-05T02:45:44;16.90;;;8.02;;
75732;SDS011;64435;47.424;19.400;2023-01-05T02:48:10;17.67;;;8.87;;
75732;SDS011;64435;47.424;19.400;2023-01-05T02:50:43;17.77;;;8.80;;
75732;SDS011;64435;47.424;19.400;2023-01-05T02:53:17;14.87;;;8.20;;
75732;SDS011;64435;47.424;19.400;2023-01-05T02:55:44;18.65;;;9.05;;
75732;SDS011;64435;47.424;19.400;2023-01-05T03:00:43;15.50;;;8.13;;
75732;SDS011;64435;47.424;19.400;2023-01-05T03:06:32;16.37;;;8.33;;
75732;SDS011;64435;47.424;19.400;2023-01-05T03:09:00;16.77;;;8.82;;
75732;SDS011;64435;47.424;19.400;2023-01-05T03:11:49;16.12;;;8.50;;
75732;SDS011;64435;47.424;19.400;2023-01-05T03:14:42;17.55;;;8.27;;
75732;SDS011;64435;47.424;19.400;2023-01-05T03:17:11;18.10;;;8.30;;
75732;SDS011;64435;47.424;19.400;2023-01-05T03:19:39;17.37;;;8.53;;
75732;SDS011;64435;47.424;19.400;2023-01-05T03:22:24;17.55;;;8.63;;
75732;SDS011;64435;47.424;19.400;2023-01-05T03:25:11;18.77;;;8.55;;
75732;SDS011;64435;47.424;19.400;2023-01-05T03:27:56;16.05;;;8.68;;
75732;SDS011;64435;47.424;19.400;2023-01-05T03:30:51;18.17;;;9.50;;
75732;SDS011;64435;47.424;19.400;2023-01-05T03:36:57;16.80;;;8.80;;
75732;SDS011;64435;47.424;19.400;2023-01-05T03:39:25;18.85;;;9.70;;
75732;SDS011;64435;47.424;19.400;2023-01-05T03:41:51;18.35;;;8.98;;
75732;SDS011;64435;47.424;19.400;2023-01-05T03:44:17;16.47;;;8.53;;
75732;SDS011;64435;47.424;19.400;2023-01-05T03:46:43;18.12;;;9.50;;
75732;SDS011;64435;47.424;19.400;2023-01-05T03:49:08;17.03;;;9.10;;
75732;SDS011;64435;47.424;19.400;2023-01-05T03:51:34;18.15;;;9.35;;
75732;SDS011;64435;47.424;19.400;2023-01-05T03:53:59;20.37;;;10.27;;
75732;SDS011;64435;47.424;19.400;2023-01-05T03:56:25;19.67;;;9.67;;
75732;SDS011;64435;47.424;19.400;2023-01-05T03:58:50;17.60;;;8.97;;
75732;SDS011;64435;47.424;19.400;2023-01-05T04:01:15;17.10;;;9.23;;
75732;SDS011;64435;47.424;19.400;2023-01-05T04:03:41;20.48;;;9.73;;
75732;SDS011;64435;47.424;19.400;2023-01-05T04:06:06;16.87;;;8.33;;
75732;SDS011;64435;47.424;19.400;2023-01-05T04:08:32;18.33;;;9.23;;
75732;SDS011;64435;47.424;19.400;2023-01-05T04:11:03;17.50;;;9.20;;
75732;SDS011;64435;47.424;19.400;2023-01-05T04:13:37;16.70;;;8.50;;
75732;SDS011;64435;47.424;19.400;2023-01-05T04:16:03;18.00;;;9.53;;
75732;SDS011;64435;47.424;19.400;2023-01-05T04:18:28;18.05;;;9.13;;
75732;SDS011;64435;47.424;19.400;2023-01-05T04:20:54;18.27;;;8.33;;
75732;SDS011;64435;47.424;19.400;2023-01-05T04:23:19;18.30;;;8.95;;
75732;SDS011;64435;47.424;19.400;2023-01-05T04:25:45;17.33;;;8.90;;
75732;SDS011;64435;47.424;19.400;2023-01-05T04:28:11;20.55;;;9.80;;
75732;SDS011;64435;47.424;19.400;2023-01-05T04:30:36;21.53;;;10.27;;
75732;SDS011;64435;47.424;19.400;2023-01-05T04:33:02;19.13;;;10.00;;
75732;SDS011;64435;47.424;19.400;2023-01-05T04:35:27;20.40;;;10.57;;
75732;SDS011;64435;47.424;19.400;2023-01-05T04:37:53;18.70;;;9.53;;
75732;SDS011;64435;47.424;19.400;2023-01-05T04:40:18;21.57;;;10.57;;
75732;SDS011;64435;47.424;19.400;2023-01-05T04:42:43;21.87;;;9.87;;
75732;SDS011;64435;47.424;19.400;2023-01-05T04:45:10;19.15;;;9.77;;
75732;SDS011;64435;47.424;19.400;2023-01-05T04:47:36;20.17;;;10.43;;
75732;SDS011;64435;47.424;19.400;2023-01-05T04:50:01;21.60;;;10.70;;
75732;SDS011;64435;47.424;19.400;2023-01-05T04:52:27;21.33;;;10.75;;
75732;SDS011;64435;47.424;19.400;2023-01-05T04:54:53;20.50;;;10.90;;
75732;SDS011;64435;47.424;19.400;2023-01-05T04:57:18;21.67;;;10.63;;
75732;SDS011;64435;47.424;19.400;2023-01-05T04:59:43;24.07;;;11.23;;
75732;SDS011;64435;47.424;19.400;2023-01-05T05:02:09;21.53;;;10.43;;
75732;SDS011;64435;47.424;19.400;2023-01-05T05:04:35;20.35;;;10.02;;
75732;SDS011;64435;47.424;19.400;2023-01-05T05:07:00;20.53;;;9.97;;
75732;SDS011;64435;47.424;19.400;2023-01-05T05:09:26;19.17;;;9.77;;
75732;SDS011;64435;47.424;19.400;2023-01-05T05:11:51;19.03;;;10.53;;
75732;SDS011;64435;47.424;19.400;2023-01-05T05:14:17;20.33;;;9.23;;
75732;SDS011;64435;47.424;19.400;2023-01-05T05:16:42;19.00;;;10.23;;
75732;SDS011;64435;47.424;19.400;2023-01-05T05:19:08;16.10;;;8.90;;
75732;SDS011;64435;47.424;19.400;2023-01-05T05:21:34;18.10;;;9.82;;
75732;SDS011;64435;47.424;19.400;2023-01-05T05:23:59;18.77;;;9.13;;
75732;SDS011;64435;47.424;19.400;2023-01-05T05:26:25;16.77;;;8.87;;
75732;SDS011;64435;47.424;19.400;2023-01-05T05:28:50;16.53;;;9.27;;
75732;SDS011;64435;47.424;19.400;2023-01-05T05:31:15;17.23;;;9.07;;
75732;SDS011;64435;47.424;19.400;2023-01-05T05:33:41;14.90;;;8.33;;
75732;SDS011;64435;47.424;19.400;2023-01-05T05:36:07;17.30;;;8.67;;
75732;SDS011;64435;47.424;19.400;2023-01-05T05:38:32;18.55;;;9.50;;
75732;SDS011;64435;47.424;19.400;2023-01-05T05:40:58;16.40;;;8.57;;
75732;SDS011;64435;47.424;19.400;2023-01-05T05:43:23;17.87;;;9.17;;
75732;SDS011;64435;47.424;19.400;2023-01-05T05:45:48;17.70;;;9.50;;
75732;SDS011;64435;47.424;19.400;2023-01-05T05:48:14;17.42;;;8.73;;
75732;SDS011;64435;47.424;19.400;2023-01-05T05:50:39;17.40;;;9.03;;
75732;SDS011;64435;47.424;19.400;2023-01-05T05:53:04;18.60;;;9.53;;
75732;SDS011;64435;47.424;19.400;2023-01-05T05:55:30;17.30;;;8.30;;
75732;SDS011;64435;47.424;19.400;2023-01-05T05:57:56;18.25;;;9.65;;
75732;SDS011;64435;47.424;19.400;2023-01-05T06:00:21;17.53;;;8.97;;
75732;SDS011;64435;47.424;19.400;2023-01-05T06:02:46;23.57;;;10.10;;
75732;SDS011;64435;47.424;19.400;2023-01-05T06:05:14;20.60;;;9.93;;
75732;SDS011;64435;47.424;19.400;2023-01-05T06:07:40;19.17;;;9.25;;
75732;SDS011;64435;47.424;19.400;2023-01-05T06:10:05;17.37;;;9.13;;
75732;SDS011;64435;47.424;19.400;2023-01-05T06:12:31;17.33;;;9.00;;
75732;SDS011;64435;47.424;19.400;2023-01-05T06:14:57;15.97;;;8.63;;
75732;SDS011;64435;47.424;19.400;2023-01-05T06:17:22;17.30;;;9.37;;
75732;SDS011;64435;47.424;19.400;2023-01-05T06:19:47;16.57;;;8.77;;
75732;SDS011;64435;47.424;19.400;2023-01-05T06:22:13;15.37;;;8.10;;
75732;SDS011;64435;47.424;19.400;2023-01-05T06:24:38;19.67;;;9.23;;
75732;SDS011;64435;47.424;19.400;2023-01-05T06:27:04;19.83;;;9.38;;
75732;SDS011;64435;47.424;19.400;2023-01-05T06:29:29;20.33;;;9.40;;
75732;SDS011;64435;47.424;19.400;2023-01-05T06:31:54;18.10;;;9.43;;
75732;SDS011;64435;47.424;19.400;2023-01-05T06:34:20;16.60;;;8.33;;
75732;SDS011;64435;47.424;19.400;2023-01-05T06:36:45;15.65;;;8.77;;
75732;SDS011;64435;47.424;19.400;2023-01-05T06:39:10;17.03;;;9.03;;
75732;SDS011;64435;47.424;19.400;2023-01-05T06:41:36;19.87;;;9.50;;
75732;SDS011;64435;47.424;19.400;2023-01-05T06:44:01;19.53;;;9.10;;
75732;SDS011;64435;47.424;19.400;2023-01-05T06:46:27;19.87;;;10.77;;
75732;SDS011;64435;47.424;19.400;2023-01-05T06:48:52;21.50;;;11.37;;
75732;SDS011;64435;47.424;19.400;2023-01-05T06:51:18;21.13;;;11.90;;
75732;SDS011;64435;47.424;19.400;2023-01-05T06:53:43;21.63;;;10.80;;
75732;SDS011;64435;47.424;19.400;2023-01-05T06:56:09;22.58;;;11.30;;
75732;SDS011;64435;47.424;19.400;2023-01-05T06:58:34;27.07;;;11.57;;
75732;SDS011;64435;47.424;19.400;2023-01-05T07:00:59;24.30;;;12.63;;
75732;SDS011;64435;47.424;19.400;2023-01-05T07:03:25;23.13;;;13.30;;
75732;SDS011;64435;47.424;19.400;2023-01-05T07:05:51;25.20;;;13.57;;
75732;SDS011;64435;47.424;19.400;2023-01-05T07:08:16;22.23;;;12.33;;
75732;SDS011;64435;47.424;19.400;2023-01-05T07:10:41;23.90;;;12.33;;
75732;SDS011;64435;47.424;19.400;2023-01-05T07:13:07;25.73;;;12.98;;
75732;SDS011;64435;47.424;19.400;2023-01-05T07:15:32;38.70;;;22.03;;
75732;SDS011;64435;47.424;19.400;2023-01-05T07:17:58;42.00;;;24.30;;
75732;SDS011;64435;47.424;19.400;2023-01-05T07:20:23;35.87;;;18.60;;
75732;SDS011;64435;47.424;19.400;2023-01-05T07:22:48;27.97;;;15.90;;
75732;SDS011;64435;47.424;19.400;2023-01-05T07:25:14;25.02;;;13.60;;
75732;SDS011;64435;47.424;19.400;2023-01-05T07:27:39;23.27;;;10.90;;
75732;SDS011;64435;47.424;19.400;2023-01-05T07:30:05;22.03;;;11.70;;
75732;SDS011;64435;47.424;19.400;2023-01-05T07:32:31;25.35;;;12.55;;
75732;SDS011;64435;47.424;19.400;2023-01-05T07:34:56;24.13;;;12.53;;
75732;SDS011;64435;47.424;19.400;2023-01-05T07:37:22;22.80;;;12.57;;
75732;SDS011;64435;47.424;19.400;2023-01-05T07:39:48;23.85;;;12.35;;
75732;SDS011;64435;47.424;19.400;2023-01-05T07:42:14;24.73;;;12.00;;
75732;SDS011;64435;47.424;19.400;2023-01-05T07:44:39;25.17;;;13.27;;
75732;SDS011;64435;47.424;19.400;2023-01-05T07:47:04;22.77;;;12.93;;
75732;SDS011;64435;47.424;19.400;2023-01-05T07:49:30;24.53;;;12.60;;
75732;SDS011;64435;47.424;19.400;2023-01-05T07:51:55;25.00;;;12.30;;
75732;SDS011;64435;47.424;19.400;2023-01-05T07:54:21;22.63;;;11.40;;
75732;SDS011;64435;47.424;19.400;2023-01-05T07:56:46;21.98;;;11.85;;
75732;SDS011;64435;47.424;19.400;2023-01-05T07:59:12;19.97;;;10.40;;
75732;SDS011;64435;47.424;19.400;2023-01-05T08:01:37;23.90;;;11.77;;
75732;SDS011;64435;47.424;19.400;2023-01-05T08:04:02;19.37;;;11.10;;
75732;SDS011;64435;47.424;19.400;2023-01-05T08:06:28;22.62;;;11.32;;
75732;SDS011;64435;47.424;19.400;2023-01-05T08:08:54;21.73;;;12.30;;
75732;SDS011;64435;47.424;19.400;2023-01-05T08:11:20;23.00;;;11.43;;
75732;SDS011;64435;47.424;19.400;2023-01-05T08:13:46;23.70;;;12.17;;
75732;SDS011;64435;47.424;19.400;2023-01-05T08:16:23;24.52;;;12.07;;
75732;SDS011;64435;47.424;19.400;2023-01-05T08:18:49;22.77;;;12.10;;
75732;SDS011;64435;47.424;19.400;2023-01-05T08:21:15;21.33;;;11.53;;
75732;SDS011;64435;47.424;19.400;2023-01-05T08:23:40;20.45;;;10.82;;
75732;SDS011;64435;47.424;19.400;2023-01-05T08:26:07;20.40;;;11.37;;
75732;SDS011;64435;47.424;19.400;2023-01-05T08:28:37;23.55;;;11.32;;
75732;SDS011;64435;47.424;19.400;2023-01-05T08:31:04;21.37;;;10.80;;
75732;SDS011;64435;47.424;19.400;2023-01-05T08:33:36;21.17;;;11.37;;
75732;SDS011;64435;47.424;19.400;2023-01-05T08:36:06;21.48;;;11.55;;
75732;SDS011;64435;47.424;19.400;2023-01-05T08:38:32;24.47;;;11.63;;
75732;SDS011;64435;47.424;19.400;2023-01-05T08:40:58;19.20;;;10.77;;
75732;SDS011;64435;47.424;19.400;2023-01-05T08:43:24;22.97;;;11.57;;
75732;SDS011;64435;47.424;19.400;2023-01-05T08:45:50;23.70;;;11.77;;
75732;SDS011;64435;47.424;19.400;2023-01-05T08:48:15;24.37;;;12.83;;
75732;SDS011;64435;47.424;19.400;2023-01-05T08:50:40;19.33;;;10.97;;
75732;SDS011;64435;47.424;19.400;2023-01-05T08:53:06;20.02;;;10.95;;
75732;SDS011;64435;47.424;19.400;2023-01-05T08:55:31;21.87;;;11.50;;
75732;SDS011;64435;47.424;19.400;2023-01-05T08:57:57;22.97;;;11.83;;
75732;SDS011;64435;47.424;19.400;2023-01-05T09:00:22;18.93;;;9.93;;
75732;SDS011;64435;47.424;19.400;2023-01-05T09:02:48;18.98;;;11.05;;
75732;SDS011;64435;47.424;19.400;2023-01-05T09:05:13;18.70;;;9.43;;
75732;SDS011;64435;47.424;19.400;2023-01-05T09:07:39;14.93;;;8.30;;
75732;SDS011;64435;47.424;19.400;2023-01-05T09:10:05;20.10;;;10.10;;
75732;SDS011;64435;47.424;19.400;2023-01-05T09:12:31;18.90;;;9.40;;
75732;SDS011;64435;47.424;19.400;2023-01-05T09:15:00;19.58;;;9.48;;
75732;SDS011;64435;47.424;19.400;2023-01-05T09:17:26;19.37;;;10.15;;
75732;SDS011;64435;47.424;19.400;2023-01-05T09:19:51;21.57;;;10.43;;
75732;SDS011;64435;47.424;19.400;2023-01-05T09:22:16;20.27;;;10.90;;
75732;SDS011;64435;47.424;19.400;2023-01-05T09:24:42;19.10;;;9.80;;
75732;SDS011;64435;47.424;19.400;2023-01-05T09:27:07;21.23;;;10.68;;
75732;SDS011;64435;47.424;19.400;2023-01-05T09:29:33;20.17;;;10.57;;
75732;SDS011;64435;47.424;19.400;2023-01-05T09:31:58;17.23;;;10.30;;
75732;SDS011;64435;47.424;19.400;2023-01-05T09:34:24;18.80;;;9.13;;
75732;SDS011;64435;47.424;19.400;2023-01-05T09:36:49;16.70;;;8.83;;
75732;SDS011;64435;47.424;19.400;2023-01-05T09:39:15;15.37;;;8.00;;
75732;SDS011;64435;47.424;19.400;2023-01-05T09:46:55;18.80;;;10.23;;
75732;SDS011;64435;47.424;19.400;2023-01-05T09:49:23;20.85;;;10.40;;
75732;SDS011;64435;47.424;19.400;2023-01-05T09:51:51;21.65;;;11.05;;
75732;SDS011;64435;47.424;19.400;2023-01-05T09:54:28;20.60;;;11.57;;
75732;SDS011;64435;47.424;19.400;2023-01-05T09:56:55;21.47;;;11.40;;
75732;SDS011;64435;47.424;19.400;2023-01-05T09:59:32;19.92;;;10.80;;
75732;SDS011;64435;47.424;19.400;2023-01-05T10:02:00;15.82;;;9.10;;
75732;SDS011;64435;47.424;19.400;2023-01-05T10:04:30;22.23;;;11.65;;
75732;SDS011;64435;47.424;19.400;2023-01-05T10:07:06;20.05;;;11.20;;
75732;SDS011;64435;47.424;19.400;2023-01-05T10:09:41;19.00;;;10.23;;
75732;SDS011;64435;47.424;19.400;2023-01-05T10:12:23;18.85;;;9.38;;
75732;SDS011;64435;47.424;19.400;2023-01-05T10:15:17;20.67;;;10.53;;
75732;SDS011;64435;47.424;19.400;2023-01-05T10:17:43;22.83;;;11.35;;
75732;SDS011;64435;47.424;19.400;2023-01-05T10:20:58;19.70;;;10.53;;
75732;SDS011;64435;47.424;19.400;2023-01-05T10:26:03;21.30;;;11.00;;
75732;SDS011;64435;47.424;19.400;2023-01-05T10:28:55;17.50;;;10.18;;
75732;SDS011;64435;47.424;19.400;2023-01-05T10:34:20;18.42;;;9.85;;
75732;SDS011;64435;47.424;19.400;2023-01-05T10:47:12;18.10;;;9.88;;
75732;SDS011;64435;47.424;19.400;2023-01-05T10:49:39;22.30;;;12.37;;
75732;SDS011;64435;47.424;19.400;2023-01-05T10:52:13;18.10;;;9.88;;
75732;SDS011;64435;47.424;19.400;2023-01-05T10:54:45;23.15;;;13.27;;
75732;SDS011;64435;47.424;19.400;2023-01-05T11:02:38;25.62;;;14.93;;
75732;SDS011;64435;47.424;19.400;2023-01-05T11:07:46;33.87;;;18.50;;
75732;SDS011;64435;47.424;19.400;2023-01-05T11:10:20;31.95;;;19.20;;
75732;SDS011;64435;47.424;19.400;2023-01-05T11:12:57;26.45;;;15.15;;
75732;SDS011;64435;47.424;19.400;2023-01-05T11:15:39;32.30;;;16.08;;
75732;SDS011;64435;47.424;19.400;2023-01-05T11:18:05;36.08;;;16.23;;
75732;SDS011;64435;47.424;19.400;2023-01-05T11:20:31;33.10;;;16.57;;
75732;SDS011;64435;47.424;19.400;2023-01-05T11:22:57;30.52;;;16.65;;
75732;SDS011;64435;47.424;19.400;2023-01-05T11:25:29;33.07;;;17.23;;
75732;SDS011;64435;47.424;19.400;2023-01-05T11:28:07;28.48;;;15.70;;
75732;SDS011;64435;47.424;19.400;2023-01-05T11:33:42;25.23;;;13.93;;
75732;SDS011;64435;47.424;19.400;2023-01-05T11:36:08;26.87;;;13.95;;
75732;SDS011;64435;47.424;19.400;2023-01-05T11:38:38;31.35;;;16.95;;
75732;SDS011;64435;47.424;19.400;2023-01-05T11:41:03;34.73;;;18.57;;
75732;SDS011;64435;47.424;19.400;2023-01-05T11:43:34;26.52;;;16.17;;
75732;SDS011;64435;47.424;19.400;2023-01-05T11:46:03;24.60;;;14.23;;
75732;SDS011;64435;47.424;19.400;2023-01-05T11:48:30;27.90;;;15.02;;
75732;SDS011;64435;47.424;19.400;2023-01-05T11:50:57;28.50;;;14.67;;
75732;SDS011;64435;47.424;19.400;2023-01-05T11:53:25;30.23;;;15.48;;
75732;SDS011;64435;47.424;19.400;2023-01-05T11:58:27;31.65;;;17.23;;
75732;SDS011;64435;47.424;19.400;2023-01-05T12:01:08;35.63;;;19.50;;
75732;SDS011;64435;47.424;19.400;2023-01-05T12:18:28;15.87;;;9.33;;
75732;SDS011;64435;47.424;19.400;2023-01-05T12:23:46;16.05;;;7.75;;
75732;SDS011;64435;47.424;19.400;2023-01-05T12:26:17;12.95;;;7.03;;
75732;SDS011;64435;47.424;19.400;2023-01-05T12:43:23;11.07;;;5.60;;
75732;SDS011;64435;47.424;19.400;2023-01-05T12:46:12;13.90;;;7.00;;
75732;SDS011;64435;47.424;19.400;2023-01-05T12:48:49;17.60;;;9.57;;
75732;SDS011;64435;47.424;19.400;2023-01-05T12:51:29;11.23;;;5.57;;
75732;SDS011;64435;47.424;19.400;2023-01-05T12:56:52;10.98;;;4.82;;
75732;SDS011;64435;47.424;19.400;2023-01-05T12:59:34;8.30;;;4.53;;
75732;SDS011;64435;47.424;19.400;2023-01-05T13:07:19;6.43;;;3.83;;
75732;SDS011;64435;47.424;19.400;2023-01-05T13:09:51;8.77;;;4.25;;
75732;SDS011;64435;47.424;19.400;2023-01-05T13:12:20;7.90;;;3.30;;
75732;SDS011;64435;47.424;19.400;2023-01-05T13:14:47;6.68;;;3.65;;
75732;SDS011;64435;47.424;19.400;2023-01-05T13:17:32;6.70;;;3.63;;
75732;SDS011;64435;47.424;19.400;2023-01-05T13:20:21;6.25;;;3.25;;
75732;SDS011;64435;47.424;19.400;2023-01-05T13:22:49;6.47;;;2.90;;
75732;SDS011;64435;47.424;19.400;2023-01-05T13:27:44;9.43;;;4.00;;
75732;SDS011;64435;47.424;19.400;2023-01-05T13:45:48;9.93;;;5.10;;
75732;SDS011;64435;47.424;19.400;2023-01-05T13:51:44;8.82;;;4.37;;
75732;SDS011;64435;47.424;19.400;2023-01-05T13:54:24;12.02;;;4.30;;
75732;SDS011;64435;47.424;19.400;2023-01-05T13:56:52;7.82;;;3.33;;
75732;SDS011;64435;47.424;19.400;2023-01-05T14:01:53;9.43;;;3.95;;
75732;SDS011;64435;47.424;19.400;2023-01-05T14:04:28;8.88;;;4.60;;
75732;SDS011;64435;47.424;19.400;2023-01-05T14:06:59;8.57;;;4.12;;
75732;SDS011;64435;47.424;19.400;2023-01-05T14:20:31;13.32;;;5.03;;
75732;SDS011;64435;47.424;19.400;2023-01-05T14:25:48;8.27;;;4.85;;
75732;SDS011;64435;47.424;19.400;2023-01-05T14:28:18;10.67;;;5.10;;
75732;SDS011;64435;47.424;19.400;2023-01-05T14:30:50;9.30;;;4.80;;
75732;SDS011;64435;47.424;19.400;2023-01-05T14:33:16;13.45;;;5.65;;
75732;SDS011;64435;47.424;19.400;2023-01-05T14:35:43;11.52;;;6.10;;
75732;SDS011;64435;47.424;19.400;2023-01-05T14:40:46;10.25;;;6.10;;
75732;SDS011;64435;47.424;19.400;2023-01-05T14:43:25;9.85;;;5.93;;
75732;SDS011;64435;47.424;19.400;2023-01-05T14:48:33;11.70;;;5.80;;
75732;SDS011;64435;47.424;19.400;2023-01-05T14:51:17;9.37;;;5.67;;
75732;SDS011;64435;47.424;19.400;2023-01-05T14:53:44;15.90;;;8.75;;
75732;SDS011;64435;47.424;19.400;2023-01-05T15:01:16;12.98;;;7.20;;
75732;SDS011;64435;47.424;19.400;2023-01-05T15:04:04;14.47;;;8.00;;
75732;SDS011;64435;47.424;19.400;2023-01-05T15:26:34;19.67;;;9.18;;
75732;SDS011;64435;47.424;19.400;2023-01-05T15:29:27;24.20;;;13.55;;
75732;SDS011;64435;47.424;19.400;2023-01-05T15:32:05;25.70;;;13.43;;
75732;SDS011;64435;47.424;19.400;2023-01-05T15:34:35;21.05;;;11.77;;
75732;SDS011;64435;47.424;19.400;2023-01-05T15:39:55;21.05;;;9.65;;
75732;SDS011;64435;47.424;19.400;2023-01-05T15:42:43;36.83;;;14.75;;
75732;SDS011;64435;47.424;19.400;2023-01-05T15:45:29;25.27;;;11.93;;
75732;SDS011;64435;47.424;19.400;2023-01-05T15:47:53;26.08;;;13.07;;
75732;SDS011;64435;47.424;19.400;2023-01-05T15:50:24;19.00;;;8.68;;
75732;SDS011;64435;47.424;19.400;2023-01-05T15:53:00;18.10;;;8.73;;
75732;SDS011;64435;47.424;19.400;2023-01-05T15:55:27;22.33;;;9.13;;
75732;SDS011;64435;47.424;19.400;2023-01-05T15:57:58;21.97;;;8.87;;
75732;SDS011;64435;47.424;19.400;2023-01-05T16:00:26;21.60;;;9.38;;
75732;SDS011;64435;47.424;19.400;2023-01-05T16:02:54;18.35;;;7.72;;
75732;SDS011;64435;47.424;19.400;2023-01-05T16:05:20;13.95;;;6.65;;
75732;SDS011;64435;47.424;19.400;2023-01-05T16:07:52;16.23;;;8.23;;
75732;SDS011;64435;47.424;19.400;2023-01-05T16:10:27;18.73;;;7.20;;
75732;SDS011;64435;47.424;19.400;2023-01-05T16:13:05;18.65;;;7.57;;
75732;SDS011;64435;47.424;19.400;2023-01-05T16:15:35;17.70;;;7.87;;
75732;SDS011;64435;47.424;19.400;2023-01-05T16:18:02;15.82;;;7.53;;
75732;SDS011;64435;47.424;19.400;2023-01-05T16:20:29;13.27;;;6.35;;
75732;SDS011;64435;47.424;19.400;2023-01-05T16:22:58;14.00;;;6.17;;
75732;SDS011;64435;47.424;19.400;2023-01-05T16:25:40;11.68;;;5.45;;
75732;SDS011;64435;47.424;19.400;2023-01-05T16:28:10;14.65;;;6.62;;
75732;SDS011;64435;47.424;19.400;2023-01-05T16:30:41;13.35;;;7.20;;
75732;SDS011;64435;47.424;19.400;2023-01-05T16:35:39;17.37;;;8.65;;
75732;SDS011;64435;47.424;19.400;2023-01-05T16:38:26;19.92;;;9.02;;
75732;SDS011;64435;47.424;19.400;2023-01-05T16:40:54;17.55;;;9.25;;
75732;SDS011;64435;47.424;19.400;2023-01-05T16:51:12;21.17;;;8.03;;
75732;SDS011;64435;47.424;19.400;2023-01-05T16:58:56;19.00;;;8.30;;
75732;SDS011;64435;47.424;19.400;2023-01-05T17:01:24;15.37;;;7.23;;
75732;SDS011;64435;47.424;19.400;2023-01-05T17:03:51;16.15;;;7.70;;
75732;SDS011;64435;47.424;19.400;2023-01-05T17:08:53;13.82;;;7.10;;
75732;SDS011;64435;47.424;19.400;2023-01-05T17:11:20;14.50;;;5.37;;
75732;SDS011;64435;47.424;19.400;2023-01-05T17:13:52;12.33;;;6.07;;
75732;SDS011;64435;47.424;19.400;2023-01-05T17:16:19;12.85;;;6.53;;
75732;SDS011;64435;47.424;19.400;2023-01-05T17:18:45;18.62;;;6.32;;
75732;SDS011;64435;47.424;19.400;2023-01-05T17:21:19;18.92;;;5.95;;
75732;SDS011;64435;47.424;19.400;2023-01-05T17:23:47;14.68;;;6.97;;
75732;SDS011;64435;47.424;19.400;2023-01-05T17:26:33;14.40;;;6.70;;
75732;SDS011;64435;47.424;19.400;2023-01-05T17:29:01;17.60;;;7.05;;
75732;SDS011;64435;47.424;19.400;2023-01-05T17:31:27;25.90;;;13.95;;
75732;SDS011;64435;47.424;19.400;2023-01-05T17:33:53;16.50;;;6.80;;
75732;SDS011;64435;47.424;19.400;2023-01-05T17:36:19;19.03;;;8.33;;
75732;SDS011;64435;47.424;19.400;2023-01-05T17:38:46;18.75;;;8.10;;